createdAt,value
2023-04-16T00:00:48.404Z,100968.75
2023-04-16T00:03:17.657Z,100974.72
2023-04-16T00:05:45.541Z,100970.94
2023-04-16T00:08:13.521Z,100966.72
2023-04-16T00:10:41.339Z,100966.72
2023-04-16T00:13:09.120Z,100966.56
2023-04-16T00:15:36.818Z,100959.94
2023-04-16T00:18:04.669Z,100964.00
2023-04-16T00:20:33.739Z,100961.97
2023-04-16T00:23:01.433Z,100958.91
2023-04-16T00:25:29.243Z,100963.50
2023-04-16T00:27:57.015Z,100958.06
2023-04-16T00:30:24.754Z,100967.75
2023-04-16T00:32:52.593Z,100964.69
2023-04-16T00:35:20.668Z,100967.75
2023-04-16T00:37:49.790Z,100969.44
2023-04-16T00:40:17.641Z,100972.19
2023-04-16T00:42:46.646Z,100977.28
2023-04-16T00:45:14.495Z,100978.97
2023-04-16T00:47:42.325Z,100970.13
2023-04-16T00:50:12.444Z,100979.31
2023-04-16T00:52:41.002Z,100965.88
2023-04-16T00:55:13.236Z,100975.25
2023-04-16T00:57:41.153Z,100976.59
2023-04-16T01:00:09.890Z,100978.31
2023-04-16T01:02:38.073Z,100978.66
2023-04-16T01:05:06.874Z,100975.25
2023-04-16T01:07:34.570Z,100977.28
2023-04-16T01:10:03.066Z,100967.44
2023-04-16T01:12:32.486Z,100974.56
2023-04-16T01:15:00.741Z,100974.59
2023-04-16T01:17:28.542Z,100983.75
2023-04-16T01:19:59.787Z,100978.16
2023-04-16T01:22:29.261Z,100988.69
2023-04-16T01:24:56.961Z,100983.06
2023-04-16T01:27:24.716Z,100978.31
2023-04-16T01:29:52.718Z,100991.91
2023-04-16T01:32:26.969Z,100986.47
2023-04-16T01:34:54.810Z,100992.59
2023-04-16T01:37:22.617Z,100984.78
2023-04-16T01:39:51.708Z,100995.66
2023-04-16T01:42:19.423Z,100995.81
2023-04-16T01:44:48.407Z,101005.50
2023-04-16T01:47:16.327Z,100998.53
2023-04-16T01:49:45.616Z,101002.13
2023-04-16T01:52:13.524Z,101008.06
2023-04-16T01:54:42.284Z,101017.75
2023-04-16T01:57:11.500Z,101011.97
2023-04-16T01:59:39.383Z,101012.97
2023-04-16T02:02:11.285Z,101016.03
2023-04-16T02:04:40.685Z,101022.66
2023-04-16T02:07:09.208Z,101009.91
2023-04-16T02:09:38.155Z,101014.69
2023-04-16T02:12:09.529Z,101013.66
2023-04-16T02:14:38.855Z,101020.13
2023-04-16T02:17:06.893Z,101027.94
2023-04-16T02:19:44.208Z,101024.19
2023-04-16T02:22:12.028Z,101030.16
2023-04-16T02:24:40.462Z,101029.16
2023-04-16T02:27:10.586Z,101029.47
2023-04-16T02:29:40.494Z,101033.38
2023-04-16T02:32:17.272Z,101032.72
2023-04-16T02:34:46.742Z,101023.19
2023-04-16T02:37:15.610Z,101038.66
2023-04-16T02:39:43.941Z,101041.53
2023-04-16T02:42:11.742Z,101032.19
2023-04-16T02:44:40.987Z,101048.69
2023-04-16T02:47:08.891Z,101040.19
2023-04-16T02:49:37.194Z,101035.41
2023-04-16T02:52:05.151Z,101028.63
2023-04-16T02:54:32.932Z,101031.31
2023-04-16T02:57:00.708Z,101037.31
2023-04-16T02:59:28.503Z,101033.72
2023-04-16T03:01:57.795Z,101042.53
2023-04-16T03:04:25.813Z,101043.56
2023-04-16T03:06:53.641Z,101047.81
2023-04-16T03:09:21.720Z,101046.97
2023-04-16T03:11:49.401Z,101050.03
2023-04-16T03:14:17.136Z,101048.84
2023-04-16T03:16:45.034Z,101045.59
2023-04-16T03:19:14.090Z,101041.16
2023-04-16T03:21:41.793Z,101040.81
2023-04-16T03:24:09.521Z,101047.63
2023-04-16T03:26:37.713Z,101039.47
2023-04-16T03:29:05.763Z,101048.59
2023-04-16T03:31:33.939Z,101055.41
2023-04-16T03:34:01.815Z,101055.72
2023-04-16T03:36:31.375Z,101060.31
2023-04-16T03:38:59.081Z,101068.63
2023-04-16T03:41:27.660Z,101073.22
2023-04-16T03:43:55.526Z,101068.66
2023-04-16T03:46:23.836Z,101076.63
2023-04-16T03:48:51.650Z,101082.25
2023-04-16T03:51:19.860Z,101067.63
2023-04-16T03:53:48.960Z,101078.69
2023-04-16T03:56:17.425Z,101068.66
2023-04-16T03:58:45.288Z,101069.69
2023-04-16T04:01:13.073Z,101072.78
2023-04-16T04:03:41.289Z,101070.72
2023-04-16T04:06:09.425Z,101065.66
2023-04-16T04:08:37.282Z,101075.78
2023-04-16T04:11:07.754Z,101071.03
2023-04-16T04:13:36.616Z,101072.38
2023-04-16T04:16:05.762Z,101083.22
2023-04-16T04:18:33.645Z,101086.63
2023-04-16T04:21:05.566Z,101087.28
2023-04-16T04:23:34.293Z,101091.16
2023-04-16T04:26:03.846Z,101092.50
2023-04-16T04:28:34.194Z,101098.63
2023-04-16T04:31:02.732Z,101096.06
2023-04-16T04:33:32.100Z,101095.75
2023-04-16T04:35:59.871Z,101105.56
2023-04-16T04:38:28.586Z,101109.94
2023-04-16T04:40:56.382Z,101107.38
2023-04-16T04:43:25.336Z,101115.16
2023-04-16T04:45:54.620Z,101112.94
2023-04-16T04:48:26.439Z,101124.97
2023-04-16T04:50:54.672Z,101107.31
2023-04-16T04:53:22.379Z,101127.16
2023-04-16T04:55:53.221Z,101127.81
2023-04-16T04:58:23.461Z,101125.94
2023-04-16T05:00:51.239Z,101134.78
2023-04-16T05:03:22.691Z,101144.09
2023-04-16T05:05:50.513Z,101142.91
2023-04-16T05:08:18.240Z,101140.22
2023-04-16T05:10:46.177Z,101142.28
2023-04-16T05:13:13.891Z,101146.53
2023-04-16T05:15:41.639Z,101149.56
2023-04-16T05:18:09.452Z,101156.69
2023-04-16T05:20:38.722Z,101147.53
2023-04-16T05:23:06.743Z,101152.31
2023-04-16T05:25:34.703Z,101154.38
2023-04-16T05:28:02.422Z,101155.09
2023-04-16T05:30:30.288Z,101162.19
2023-04-16T05:32:58.050Z,101162.84
2023-04-16T05:35:25.805Z,101153.34
2023-04-16T05:37:54.861Z,101167.25
2023-04-16T05:40:22.684Z,101169.25
2023-04-16T05:42:50.428Z,101173.00
2023-04-16T05:45:18.123Z,101184.16
2023-04-16T05:47:45.858Z,101188.25
2023-04-16T05:50:13.608Z,101191.69
2023-04-16T05:52:41.766Z,101194.41
2023-04-16T05:55:11.231Z,101189.91
2023-04-16T05:57:38.960Z,101184.81
2023-04-16T06:00:08.481Z,101200.16
2023-04-16T06:02:42.457Z,101194.50
2023-04-16T06:05:10.683Z,101195.34
2023-04-16T06:07:38.434Z,101196.50
2023-04-16T06:10:07.137Z,101203.44
2023-04-16T06:12:36.180Z,101201.09
2023-04-16T06:15:04.167Z,101199.09
2023-04-16T06:17:31.945Z,101201.31
2023-04-16T06:19:59.757Z,101201.94
2023-04-16T06:22:27.666Z,101205.84
2023-04-16T06:24:55.431Z,101212.28
2023-04-16T06:27:23.249Z,101218.31
2023-04-16T06:29:52.354Z,101216.31
2023-04-16T06:32:20.205Z,101222.81
2023-04-16T06:34:48.072Z,101222.50
2023-04-16T06:37:16.203Z,101227.94
2023-04-16T06:39:43.915Z,101235.06
2023-04-16T06:42:11.794Z,101224.25
2023-04-16T06:44:39.760Z,101232.16
2023-04-16T06:47:09.032Z,101236.56
2023-04-16T06:49:36.790Z,101239.97
2023-04-16T06:52:05.919Z,101244.06
2023-04-16T06:54:33.915Z,101240.19
2023-04-16T06:57:01.634Z,101249.75
2023-04-16T06:59:29.386Z,101237.41
2023-04-16T07:01:57.769Z,101246.91
2023-04-16T07:04:26.999Z,101245.72
2023-04-16T07:06:54.751Z,101239.59
2023-04-16T07:09:22.484Z,101244.53
2023-04-16T07:11:50.193Z,101252.56
2023-04-16T07:14:18.246Z,101253.78
2023-04-16T07:16:46.231Z,101252.56
2023-04-16T07:19:14.289Z,101252.78
2023-04-16T07:21:43.781Z,101252.97
2023-04-16T07:24:12.254Z,101253.34
2023-04-16T07:26:39.995Z,101253.38
2023-04-16T07:29:07.863Z,101262.22
2023-04-16T07:31:35.722Z,101269.19
2023-04-16T07:34:03.662Z,101255.59
2023-04-16T07:36:31.803Z,101260.06
2023-04-16T07:39:01.009Z,101268.75
2023-04-16T07:41:29.451Z,101258.56
2023-04-16T07:43:57.733Z,101265.38
2023-04-16T07:46:28.349Z,101267.94
2023-04-16T07:49:01.011Z,101273.50
2023-04-16T07:51:28.758Z,101276.25
2023-04-16T07:53:56.520Z,101274.38
2023-04-16T07:56:25.930Z,101275.78
2023-04-16T07:58:53.673Z,101279.88
2023-04-16T08:01:21.460Z,101277.53
2023-04-16T08:03:49.360Z,101279.38
2023-04-16T08:06:17.244Z,101288.22
2023-04-16T08:08:45.151Z,101289.06
2023-04-16T08:11:12.963Z,101285.31
2023-04-16T08:13:42.052Z,101286.34
2023-04-16T08:16:09.988Z,101286.72
2023-04-16T08:18:38.293Z,101289.44
2023-04-16T08:21:06.155Z,101296.75
2023-04-16T08:23:33.957Z,101293.53
2023-04-16T08:26:02.015Z,101298.63
2023-04-16T08:28:29.696Z,101301.34
2023-04-16T08:30:58.809Z,101300.69
2023-04-16T08:33:26.616Z,101300.38
2023-04-16T08:35:54.554Z,101307.31
2023-04-16T08:38:22.316Z,101310.59
2023-04-16T08:40:50.573Z,101306.19
2023-04-16T08:43:20.013Z,101310.28
2023-04-16T08:45:49.309Z,101309.78
2023-04-16T08:48:21.356Z,101320.16
2023-04-16T08:50:53.248Z,101324.59
2023-04-16T08:53:33.794Z,101314.69
2023-04-16T08:56:05.381Z,101315.06
2023-04-16T08:58:35.563Z,101331.72
2023-04-16T09:01:04.056Z,101329.63
2023-04-16T09:03:36.294Z,101320.47
2023-04-16T09:06:05.532Z,101321.16
2023-04-16T09:08:33.388Z,101296.50
2023-04-16T09:11:01.199Z,101320.84
2023-04-16T09:13:29.330Z,101321.84
2023-04-16T09:15:57.948Z,101326.97
2023-04-16T09:18:25.740Z,101326.97
2023-04-16T09:20:56.300Z,101329.50
2023-04-16T09:23:24.984Z,101333.44
2023-04-16T09:25:52.697Z,101330.72
2023-04-16T09:28:42.296Z,101330.38
2023-04-16T09:31:11.305Z,101338.88
2023-04-16T09:33:39.016Z,101343.13
2023-04-16T09:36:08.301Z,101342.47
2023-04-16T09:38:57.999Z,101350.59
2023-04-16T09:41:27.131Z,101349.41
2023-04-16T09:43:57.057Z,101351.09
2023-04-16T09:46:26.076Z,101348.25
2023-04-16T09:48:53.856Z,101349.44
2023-04-16T09:51:22.911Z,101348.75
2023-04-16T09:53:53.085Z,101357.59
2023-04-16T09:56:25.844Z,101351.81
2023-04-16T09:58:58.237Z,101352.34
2023-04-16T10:01:26.287Z,101350.97
2023-04-16T10:03:55.520Z,101360.00
2023-04-16T10:06:27.182Z,101361.38
2023-04-16T10:08:57.095Z,101359.16
2023-04-16T10:11:25.653Z,101367.50
2023-04-16T10:13:53.540Z,101367.31
2023-04-16T10:16:23.331Z,101372.63
2023-04-16T10:18:51.403Z,101360.34
2023-04-16T10:21:19.960Z,101373.31
2023-04-16T10:23:49.670Z,101381.47
2023-04-16T10:26:19.260Z,101379.06
2023-04-16T10:28:47.053Z,101373.97
2023-04-16T10:31:15.397Z,101387.94
2023-04-16T10:33:44.973Z,101376.34
2023-04-16T10:36:15.332Z,101375.84
2023-04-16T10:38:50.899Z,101384.53
2023-04-16T10:41:20.464Z,101392.53
2023-04-16T10:43:49.225Z,101381.47
2023-04-16T10:46:22.110Z,101398.47
2023-04-16T10:48:51.331Z,101390.66
2023-04-16T10:51:31.753Z,101386.91
2023-04-16T10:54:20.260Z,101391.31
2023-04-16T10:56:48.441Z,101394.03
2023-04-16T10:59:19.832Z,101395.41
2023-04-16T11:01:49.396Z,101395.25
2023-04-16T11:04:35.791Z,101404.59
2023-04-16T11:07:19.988Z,101397.47
2023-04-16T11:09:57.722Z,101399.81
2023-04-16T11:12:28.987Z,101396.06
2023-04-16T11:15:00.745Z,101389.59
2023-04-16T11:17:30.557Z,101402.88
2023-04-16T11:19:58.762Z,101396.19
2023-04-16T11:22:27.196Z,101404.38
2023-04-16T11:24:57.411Z,101402.50
2023-04-16T11:27:25.474Z,101400.47
2023-04-16T11:30:01.796Z,101396.75
2023-04-16T11:32:33.010Z,101402.22
2023-04-16T11:35:03.588Z,101400.50
2023-04-16T11:37:34.082Z,101408.03
2023-04-16T11:40:06.398Z,101410.75
2023-04-16T11:42:37.197Z,101399.84
2023-04-16T11:45:06.206Z,101406.50
2023-04-16T11:47:44.526Z,101415.00
2023-04-16T11:50:20.125Z,101411.78
2023-04-16T11:52:48.744Z,101417.91
2023-04-16T11:55:18.491Z,101406.66
2023-04-16T11:57:46.822Z,101413.50
2023-04-16T12:00:15.796Z,101416.56
2023-04-16T12:02:46.070Z,101410.06
2023-04-16T12:05:32.347Z,101412.97
2023-04-16T12:08:03.356Z,101418.78
2023-04-16T12:10:36.179Z,101417.06
2023-04-16T12:13:13.143Z,101415.00
2023-04-16T12:15:46.254Z,101421.00
2023-04-16T12:18:16.223Z,101419.97
2023-04-16T12:20:45.953Z,101409.56
2023-04-16T12:23:24.743Z,101416.91
2023-04-16T12:25:55.857Z,101421.34
2023-04-16T12:28:31.737Z,101421.34
2023-04-16T12:30:59.896Z,101421.66
2023-04-16T12:33:27.709Z,101408.34
2023-04-16T12:35:55.997Z,101420.31
2023-04-16T12:38:25.403Z,101423.38
2023-04-16T12:40:56.723Z,101431.94
2023-04-16T12:43:24.914Z,101435.50
2023-04-16T12:45:52.825Z,101426.25
2023-04-16T12:48:20.680Z,101425.06
2023-04-16T12:50:48.490Z,101423.16
2023-04-16T12:53:16.360Z,101417.38
2023-04-16T12:55:45.286Z,101420.25
2023-04-16T12:58:14.363Z,101415.78
2023-04-16T13:00:42.302Z,101416.44
2023-04-16T13:03:10.268Z,101423.59
2023-04-16T13:05:38.278Z,101419.81
2023-04-16T13:08:06.365Z,101425.31
2023-04-16T13:10:34.230Z,101416.03
2023-04-16T13:13:02.031Z,101414.34
2023-04-16T13:15:31.158Z,101426.09
2023-04-16T13:17:58.950Z,101429.69
2023-04-16T13:20:26.948Z,101423.94
2023-04-16T13:22:54.992Z,101430.22
2023-04-16T13:25:22.795Z,101423.25
2023-04-16T13:27:50.570Z,101423.94
2023-04-16T13:30:18.343Z,101427.50
2023-04-16T13:32:47.525Z,101427.84
2023-04-16T13:35:15.300Z,101423.75
2023-04-16T13:37:43.119Z,101418.28
2023-04-16T13:40:10.880Z,101424.91
2023-04-16T13:42:38.614Z,101423.66
2023-04-16T13:45:09.302Z,101422.81
2023-04-16T13:47:37.410Z,101411.91
2023-04-16T13:50:07.292Z,101413.97
2023-04-16T13:52:35.291Z,101418.75
2023-04-16T13:55:03.225Z,101421.28
2023-04-16T13:57:32.021Z,101417.41
2023-04-16T13:59:59.834Z,101414.88
2023-04-16T14:02:27.800Z,101408.38
2023-04-16T14:04:55.673Z,101414.53
2023-04-16T14:07:27.006Z,101399.47
2023-04-16T14:09:54.925Z,101406.59
2023-04-16T14:12:22.683Z,101407.41
2023-04-16T14:14:50.494Z,101406.91
2023-04-16T14:17:18.268Z,101410.41
2023-04-16T14:19:45.999Z,101406.59
2023-04-16T14:22:17.603Z,101412.00
2023-04-16T14:24:46.697Z,101405.53
2023-04-16T14:27:14.468Z,101407.28
2023-04-16T14:29:43.694Z,101410.28
2023-04-16T14:32:12.517Z,101410.97
2023-04-16T14:34:41.218Z,101406.03
2023-04-16T14:37:11.194Z,101404.75
2023-04-16T14:39:40.195Z,101406.78
2023-04-16T14:42:10.693Z,101412.38
2023-04-16T14:44:39.782Z,101407.56
2023-04-16T14:47:08.755Z,101408.53
2023-04-16T14:49:39.550Z,101406.84
2023-04-16T14:52:15.257Z,101407.75
2023-04-16T14:54:48.444Z,101404.94
2023-04-16T14:57:18.530Z,101405.91
2023-04-16T14:59:46.528Z,101401.97
2023-04-16T15:02:14.446Z,101406.47
2023-04-16T15:04:42.447Z,101404.47
2023-04-16T15:07:10.354Z,101406.47
2023-04-16T15:09:38.090Z,101412.13
2023-04-16T15:12:06.213Z,101413.34
2023-04-16T15:14:35.436Z,101417.47
2023-04-16T15:17:03.335Z,101413.16
2023-04-16T15:19:31.328Z,101416.06
2023-04-16T15:22:00.472Z,101404.66
2023-04-16T15:24:28.284Z,101408.75
2023-04-16T15:26:56.165Z,101403.50
2023-04-16T15:29:23.997Z,101399.31
2023-04-16T15:31:53.408Z,101405.75
2023-04-16T15:34:21.115Z,101414.09
2023-04-16T15:36:48.824Z,101414.78
2023-04-16T15:39:16.547Z,101419.28
2023-04-16T15:41:57.582Z,101417.94
2023-04-16T15:44:28.133Z,101410.75
2023-04-16T15:46:57.189Z,101415.38
2023-04-16T15:49:25.361Z,101418.22
2023-04-16T15:51:53.184Z,101417.50
2023-04-16T15:54:21.462Z,101408.13
2023-04-16T15:56:50.763Z,101408.59
2023-04-16T15:59:18.711Z,101412.38
2023-04-16T16:01:46.579Z,101421.47
2023-04-16T16:04:16.031Z,101426.81
2023-04-16T16:06:44.060Z,101421.47
2023-04-16T16:09:12.121Z,101430.00
2023-04-16T16:11:40.230Z,101424.41
2023-04-16T16:14:08.000Z,101424.22
2023-04-16T16:16:36.298Z,101433.09
2023-04-16T16:19:04.239Z,101428.66
2023-04-16T16:21:33.765Z,101430.72
2023-04-16T16:24:01.702Z,101430.59
2023-04-16T16:26:29.939Z,101440.53
2023-04-16T16:28:58.061Z,101445.16
2023-04-16T16:31:26.023Z,101444.47
2023-04-16T16:33:53.918Z,101440.06
2023-04-16T16:36:22.670Z,101438.69
2023-04-16T16:38:51.722Z,101447.94
2023-04-16T16:41:19.514Z,101451.34
2023-04-16T16:43:47.312Z,101443.84
2023-04-16T16:46:15.113Z,101451.50
2023-04-16T16:48:42.942Z,101447.75
2023-04-16T16:51:11.454Z,101443.66
2023-04-16T16:53:39.223Z,101448.63
2023-04-16T16:56:08.440Z,101449.47
2023-04-16T16:58:36.228Z,101438.66
2023-04-16T17:01:04.095Z,101446.84
2023-04-16T17:03:32.079Z,101441.19
2023-04-16T17:06:05.319Z,101446.13
2023-04-16T17:08:33.082Z,101442.78
2023-04-16T17:11:03.892Z,101445.53
2023-04-16T17:13:33.532Z,101454.00
2023-04-16T17:16:01.673Z,101442.81
2023-04-16T17:18:29.488Z,101450.84
2023-04-16T17:20:57.384Z,101450.16
2023-04-16T17:23:25.179Z,101447.56
2023-04-16T17:25:52.967Z,101447.44
2023-04-16T17:28:21.427Z,101442.31
2023-04-16T17:30:54.150Z,101444.25
2023-04-16T17:33:22.078Z,101441.22
2023-04-16T17:35:49.970Z,101448.03
2023-04-16T17:38:17.694Z,101441.06
2023-04-16T17:40:45.439Z,101446.75
2023-04-16T17:43:13.210Z,101455.94
2023-04-16T17:45:41.008Z,101461.91
2023-04-16T17:48:10.441Z,101467.22
2023-04-16T17:50:39.613Z,101457.66
2023-04-16T17:53:07.666Z,101466.22
2023-04-16T17:55:35.635Z,101468.25
2023-04-16T17:58:04.210Z,101470.28
2023-04-16T18:00:32.095Z,101473.03
2023-04-16T18:03:00.076Z,101477.13
2023-04-16T18:05:31.509Z,101471.69
2023-04-16T18:07:59.310Z,101481.22
2023-04-16T18:10:27.125Z,101479.22
2023-04-16T18:12:54.968Z,101479.03
2023-04-16T18:15:22.767Z,101478.19
2023-04-16T18:17:50.960Z,101481.44
2023-04-16T18:20:19.674Z,101492.19
2023-04-16T18:22:48.819Z,101480.09
2023-04-16T18:25:16.890Z,101490.13
2023-04-16T18:27:44.802Z,101494.59
2023-04-16T18:30:23.135Z,101494.94
2023-04-16T18:33:06.955Z,101498.03
2023-04-16T18:35:41.795Z,101495.63
2023-04-16T18:38:10.994Z,101508.44
2023-04-16T18:40:38.844Z,101504.50
2023-04-16T18:43:06.707Z,101515.94
2023-04-16T18:45:34.724Z,101518.34
2023-04-16T18:48:04.191Z,101515.75
2023-04-16T18:50:32.015Z,101517.66
2023-04-16T18:52:59.801Z,101520.91
2023-04-16T18:55:30.070Z,101523.97
2023-04-16T18:57:57.848Z,101531.28
2023-04-16T19:00:25.848Z,101537.44
2023-04-16T19:02:53.847Z,101538.09
2023-04-16T19:05:22.953Z,101543.41
2023-04-16T19:07:50.971Z,101539.63
2023-04-16T19:10:18.755Z,101541.69
2023-04-16T19:12:47.885Z,101540.16
2023-04-16T19:15:15.701Z,101539.47
2023-04-16T19:17:43.550Z,101540.50
2023-04-16T19:20:12.646Z,101543.72
2023-04-16T19:22:40.787Z,101548.53
2023-04-16T19:25:09.388Z,101547.31
2023-04-16T19:27:37.210Z,101548.16
2023-04-16T19:30:07.705Z,101547.31
2023-04-16T19:32:35.583Z,101548.50
2023-04-16T19:35:03.784Z,101546.13
2023-04-16T19:37:31.510Z,101548.84
2023-04-16T19:39:59.689Z,101555.31
2023-04-16T19:42:27.433Z,101550.72
2023-04-16T19:44:55.366Z,101546.47
2023-04-16T19:47:24.485Z,101551.41
2023-04-16T19:49:52.249Z,101554.31
2023-04-16T19:52:20.032Z,101553.28
2023-04-16T19:54:47.817Z,101560.09
2023-04-16T19:57:15.562Z,101549.16
2023-04-16T19:59:43.313Z,101552.94
2023-04-16T20:02:11.362Z,101555.13
2023-04-16T20:04:40.501Z,101559.56
2023-04-16T20:07:08.335Z,101561.38
2023-04-16T20:09:36.138Z,101560.53
2023-04-16T20:12:03.857Z,101564.44
2023-04-16T20:14:31.710Z,101559.00
2023-04-16T20:16:59.541Z,101563.78
2023-04-16T20:19:31.435Z,101561.72
2023-04-16T20:22:00.778Z,101568.19
2023-04-16T20:24:30.987Z,101565.09
2023-04-16T20:26:58.821Z,101570.56
2023-04-16T20:29:27.021Z,101567.50
2023-04-16T20:31:54.774Z,101573.28
2023-04-16T20:34:22.459Z,101572.94
2023-04-16T20:36:50.464Z,101576.16
2023-04-16T20:39:20.407Z,101579.06
2023-04-16T20:41:57.044Z,101568.38
2023-04-16T20:44:26.131Z,101578.41
2023-04-16T20:46:55.537Z,101577.84
2023-04-16T20:49:24.821Z,101575.16
2023-04-16T20:51:52.552Z,101570.84
2023-04-16T20:54:21.629Z,101569.47
2023-04-16T20:56:50.355Z,101573.88
2023-04-16T20:59:18.188Z,101581.03
2023-04-16T21:01:47.463Z,101577.16
2023-04-16T21:04:15.634Z,101569.97
2023-04-16T21:06:43.967Z,101578.97
2023-04-16T21:09:12.290Z,101584.91
2023-04-16T21:11:41.647Z,101585.41
2023-04-16T21:14:09.423Z,101586.41
2023-04-16T21:16:37.225Z,101586.16
2023-04-16T21:19:05.119Z,101591.59
2023-04-16T21:21:33.235Z,101602.47
2023-04-16T21:24:01.117Z,101592.72
2023-04-16T21:26:29.085Z,101591.13
2023-04-16T21:28:58.126Z,101594.19
2023-04-16T21:31:26.076Z,101595.56
2023-04-16T21:33:53.856Z,101596.97
2023-04-16T21:36:21.610Z,101594.91
2023-04-16T21:38:49.355Z,101598.78
2023-04-16T21:41:17.376Z,101590.75
2023-04-16T21:43:45.096Z,101598.88
2023-04-16T21:46:14.244Z,101590.03
2023-04-16T21:48:41.942Z,101584.63
2023-04-16T21:51:10.042Z,101589.91
2023-04-16T21:53:39.002Z,101592.28
2023-04-16T21:56:07.695Z,101587.16
2023-04-16T21:58:35.436Z,101594.47
2023-04-16T22:01:03.219Z,101593.56
2023-04-16T22:03:33.445Z,101595.75
2023-04-16T22:06:01.746Z,101599.13
2023-04-16T22:08:30.550Z,101596.38
2023-04-16T22:10:59.160Z,101596.31
2023-04-16T22:13:27.384Z,101593.34
2023-04-16T22:15:55.871Z,101597.09
2023-04-16T22:18:25.486Z,101597.09
2023-04-16T22:20:55.553Z,101586.63
2023-04-16T22:23:23.745Z,101593.25
2023-04-16T22:25:52.098Z,101588.44
2023-04-16T22:28:19.987Z,101593.03
2023-04-16T22:30:47.703Z,101590.88
2023-04-16T22:33:15.625Z,101589.28
2023-04-16T22:35:43.474Z,101592.84
2023-04-16T22:38:12.567Z,101595.66
2023-04-16T22:40:40.403Z,101592.19
2023-04-16T22:43:08.169Z,101593.34
2023-04-16T22:45:37.427Z,101599.94
2023-04-16T22:48:05.566Z,101601.88
2023-04-16T22:50:33.313Z,101598.69
2023-04-16T22:53:01.017Z,101597.34
2023-04-16T22:55:30.102Z,101601.00
2023-04-16T22:57:57.851Z,101605.38
2023-04-16T23:00:25.537Z,101601.34
2023-04-16T23:02:53.369Z,101599.63
2023-04-16T23:05:21.280Z,101593.56
2023-04-16T23:07:48.986Z,101598.72
2023-04-16T23:10:16.993Z,101591.19
2023-04-16T23:12:46.093Z,101593.25
2023-04-16T23:15:14.415Z,101597.34
2023-04-16T23:17:42.318Z,101602.16
2023-04-16T23:20:12.125Z,101591.50
2023-04-16T23:22:39.887Z,101599.53
2023-04-16T23:25:08.839Z,101598.28
2023-04-16T23:27:37.514Z,101607.94
2023-04-16T23:30:08.671Z,101601.13
2023-04-16T23:32:36.588Z,101608.03
2023-04-16T23:35:04.465Z,101602.75
2023-04-16T23:37:32.321Z,101606.88
2023-04-16T23:40:00.050Z,101600.88
2023-04-16T23:42:27.859Z,101599.88
2023-04-16T23:44:56.096Z,101596.47
2023-04-16T23:47:25.412Z,101605.16
2023-04-16T23:49:53.128Z,101594.50
2023-04-16T23:52:21.272Z,101597.50
2023-04-16T23:54:49.060Z,101603.56
2023-04-16T23:57:16.814Z,101601.16
2023-04-16T23:59:44.581Z,101606.03
